Un Akdeniz — TCTD2 — position and weather

sailwx.info

Track history (hours):
 
Tides and Currents Weather Stations Pressure Air Temp Water Temp Dewpoint Dewpoint Depression Visibility Wind Speed Wind Dir Waves Ship Positions

Un Akdeniz

Last reported at 2014-Dec-21 19:32 UTC. Time now 2014-Dec-23 01:32 UTC.
Position N 42°54' E 006°04'.

Length 192 m; draft 6.8 m.

Type: Ship (hazmat cat A). MMSI: 271002572.

Date/timePositionNaut miles runAvg speedWind from/ knotsBaromVisibWave heightAir tempDewpointWater temp
2014-Dec-21 19:32N 42°54' E 006°04'1514.5
2014-Dec-21 18:32N 43°06' E 005°54'0 0.0
2014-Dec-21 17:31N 43°06' E 005°54'0 0.0
2014-Dec-21 16:31N 43°06' E 005°54'0 0.0
2014-Dec-21 15:31N 43°06' E 005°54'0 0.0
2014-Dec-21 14:33N 43°06' E 005°54'0 0.0
2014-Dec-21 13:33N 43°06' E 005°54'0 0.0
2014-Dec-21 12:32N 43°06' E 005°54'0 0.0
2014-Dec-21 11:32N 43°06' E 005°54'0 0.0
2014-Dec-21 10:31N 43°06' E 005°54'0 0.0
2014-Dec-21 09:31N 43°06' E 005°54'0 0.0
2014-Dec-21 08:33N 43°06' E 005°54'2 1.6
2014-Dec-21 07:34N 43°05' E 005°55'6 5.9
2014-Dec-21 06:33N 43°01' E 006°01'9 8.9
2014-Dec-21 05:33N 42°57' E 006°12'13619.4
2014-Dec-20 22:33N 43°08' E 009°18'1414.2
2014-Dec-20 21:32N 43°05' E 009°37'2512.8
2014-Dec-20 19:33N 42°41' E 009°48'40816.7
2014-Dec-19 19:04N 37°47' E 016°01'36318.4
2014-Dec-18 23:22N 36°49' E 023°31'4419.8
2014-Dec-18 21:10N 37°25' E 024°00'1820.5
2014-Dec-18 20:18N 37°40' E 024°12'1619.9
2014-Dec-18 19:30N 37°50' E 024°28'26017.3
2014-Dec-18 04:29N 40°47' E 028°36'1819.0
2014-Dec-18 03:33N 40°47' E 028°59'1413.1
2014-Dec-18 02:31N 40°51' E 029°16'0 0.0
2014-Dec-18 01:18N 40°51' E 029°16'0 0.0
2014-Dec-18 00:24N 40°51' E 029°16'0 0.0
2014-Dec-17 23:30N 40°51' E 029°16'0 0.0
2014-Dec-17 22:29N 40°51' E 029°16'0 0.0
2014-Dec-17 21:23N 40°51' E 029°16'0 0.0
2014-Dec-17 20:28N 40°51' E 029°16'0 0.0
2014-Dec-17 19:33N 40°51' E 029°16'7 6.8
2014-Dec-17 18:33N 40°49' E 029°08'1817.8
2014-Dec-17 17:33N 40°50' E 028°44'9517.9
2014-Dec-17 12:15N 40°25' E 026°44'6315.2
2014-Dec-17 08:06N 39°41' E 025°45'1118.7
2014-Dec-17 07:30N 39°31' E 025°39'15318.6
2014-Dec-16 23:16N 37°15' E 024°07'1418.9
2014-Dec-16 22:30N 37°03' E 023°57'  
2014-Dec-14 18:17N 42°48' E 006°12'1317.5
2014-Dec-14 17:33N 42°57' E 005°60'1110.6
2014-Dec-14 16:34N 43°06' E 005°54'0 0.0
2014-Dec-14 15:31N 43°06' E 005°54'0 0.0
2014-Dec-14 14:34N 43°06' E 005°54'0 0.0
2014-Dec-14 13:33N 43°06' E 005°54'0 0.0
2014-Dec-14 12:33N 43°06' E 005°54'0 0.0
2014-Dec-14 11:32N 43°06' E 005°54'0 0.0
2014-Dec-14 10:32N 43°06' E 005°54'0 0.0
2014-Dec-14 09:31N 43°06' E 005°54'0 0.0
2014-Dec-14 08:31N 43°06' E 005°54'0 0.0
2014-Dec-14 07:33N 43°06' E 005°54'0 0.2
2014-Dec-14 06:33N 43°06' E 005°54'7 7.1
2014-Dec-14 05:33N 43°01' E 006°01'10 9.9
2014-Dec-14 04:33N 42°52' E 006°06'88117.1
2014-Dec-12 01:10N 36°38' E 023°24'1319.6
2014-Dec-12 00:30N 36°49' E 023°33'2020.1
2014-Dec-11 23:29N 37°06' E 023°46'1920.1
2014-Dec-11 22:33N 37°22' E 023°58'2020.2
2014-Dec-11 21:33N 37°39' E 024°12'2120.7
2014-Dec-11 20:33N 37°53' E 024°31'2120.5
2014-Dec-11 19:33N 38°11' E 024°44'  
Track history (hours):
 
Tides and Currents Weather Stations Pressure Air Temp Water Temp Dewpoint Dewpoint Depression Visibility Wind Speed Wind Dir Waves Ship Positions

Un Akdeniz

Last reported at 2014-Dec-21 19:32 UTC. Time now 2014-Dec-23 01:32 UTC.
Position N 42°54' E 006°04'.

Length 192 m; draft 6.8 m.

Type: Ship (hazmat cat A). MMSI: 271002572.

Date/timePositionNaut miles runAvg speedWind from/ knotsBaromVisibWave heightAir tempDewpointWater temp
2014-Dec-21 19:32N 42°54' E 006°04'1514.5
2014-Dec-21 18:32N 43°06' E 005°54'0 0.0
2014-Dec-21 17:31N 43°06' E 005°54'0 0.0
2014-Dec-21 16:31N 43°06' E 005°54'0 0.0
2014-Dec-21 15:31N 43°06' E 005°54'0 0.0
2014-Dec-21 14:33N 43°06' E 005°54'0 0.0
2014-Dec-21 13:33N 43°06' E 005°54'0 0.0
2014-Dec-21 12:32N 43°06' E 005°54'0 0.0
2014-Dec-21 11:32N 43°06' E 005°54'0 0.0
2014-Dec-21 10:31N 43°06' E 005°54'0 0.0
2014-Dec-21 09:31N 43°06' E 005°54'0 0.0
2014-Dec-21 08:33N 43°06' E 005°54'2 1.6
2014-Dec-21 07:34N 43°05' E 005°55'6 5.9
2014-Dec-21 06:33N 43°01' E 006°01'9 8.9
2014-Dec-21 05:33N 42°57' E 006°12'13619.4
2014-Dec-20 22:33N 43°08' E 009°18'1414.2
2014-Dec-20 21:32N 43°05' E 009°37'2512.8
2014-Dec-20 19:33N 42°41' E 009°48'40816.7
2014-Dec-19 19:04N 37°47' E 016°01'36318.4
2014-Dec-18 23:22N 36°49' E 023°31'4419.8
2014-Dec-18 21:10N 37°25' E 024°00'1820.5
2014-Dec-18 20:18N 37°40' E 024°12'1619.9
2014-Dec-18 19:30N 37°50' E 024°28'26017.3
2014-Dec-18 04:29N 40°47' E 028°36'1819.0
2014-Dec-18 03:33N 40°47' E 028°59'1413.1
2014-Dec-18 02:31N 40°51' E 029°16'0 0.0
2014-Dec-18 01:18N 40°51' E 029°16'0 0.0
2014-Dec-18 00:24N 40°51' E 029°16'0 0.0
2014-Dec-17 23:30N 40°51' E 029°16'0 0.0
2014-Dec-17 22:29N 40°51' E 029°16'0 0.0
2014-Dec-17 21:23N 40°51' E 029°16'0 0.0
2014-Dec-17 20:28N 40°51' E 029°16'0 0.0
2014-Dec-17 19:33N 40°51' E 029°16'7 6.8
2014-Dec-17 18:33N 40°49' E 029°08'1817.8
2014-Dec-17 17:33N 40°50' E 028°44'9517.9
2014-Dec-17 12:15N 40°25' E 026°44'6315.2
2014-Dec-17 08:06N 39°41' E 025°45'1118.7
2014-Dec-17 07:30N 39°31' E 025°39'15318.6
2014-Dec-16 23:16N 37°15' E 024°07'1418.9
2014-Dec-16 22:30N 37°03' E 023°57'  
2014-Dec-14 18:17N 42°48' E 006°12'1317.5
2014-Dec-14 17:33N 42°57' E 005°60'1110.6
2014-Dec-14 16:34N 43°06' E 005°54'0 0.0
2014-Dec-14 15:31N 43°06' E 005°54'0 0.0
2014-Dec-14 14:34N 43°06' E 005°54'0 0.0
2014-Dec-14 13:33N 43°06' E 005°54'0 0.0
2014-Dec-14 12:33N 43°06' E 005°54'0 0.0
2014-Dec-14 11:32N 43°06' E 005°54'0 0.0
2014-Dec-14 10:32N 43°06' E 005°54'0 0.0
2014-Dec-14 09:31N 43°06' E 005°54'0 0.0
2014-Dec-14 08:31N 43°06' E 005°54'0 0.0
2014-Dec-14 07:33N 43°06' E 005°54'0 0.2
2014-Dec-14 06:33N 43°06' E 005°54'7 7.1
2014-Dec-14 05:33N 43°01' E 006°01'10 9.9
2014-Dec-14 04:33N 42°52' E 006°06'88117.1
2014-Dec-12 01:10N 36°38' E 023°24'1319.6
2014-Dec-12 00:30N 36°49' E 023°33'2020.1
2014-Dec-11 23:29N 37°06' E 023°46'1920.1
2014-Dec-11 22:33N 37°22' E 023°58'2020.2
2014-Dec-11 21:33N 37°39' E 024°12'2120.7
2014-Dec-11 20:33N 37°53' E 024°31'2120.5
2014-Dec-11 19:33N 38°11' E 024°44'  

Dump ship's entire track history